sensor_id;sensor_type;location;lat;lon;timestamp;P1;durP1;ratioP1;P2;durP2;ratioP2
17917;SDS011;9084;50.956;3.106;2023-07-31T00:02:08;9.32;;;4.88;;
17917;SDS011;9084;50.956;3.106;2023-07-31T00:04:34;9.35;;;5.78;;
17917;SDS011;9084;50.956;3.106;2023-07-31T00:06:59;9.30;;;5.38;;
17917;SDS011;9084;50.956;3.106;2023-07-31T00:09:25;9.13;;;4.57;;
17917;SDS011;9084;50.956;3.106;2023-07-31T00:11:51;11.63;;;5.25;;
17917;SDS011;9084;50.956;3.106;2023-07-31T00:14:21;8.85;;;4.85;;
17917;SDS011;9084;50.956;3.106;2023-07-31T00:16:51;11.15;;;5.22;;
17917;SDS011;9084;50.956;3.106;2023-07-31T00:19:16;10.10;;;4.93;;
17917;SDS011;9084;50.956;3.106;2023-07-31T00:21:43;8.77;;;5.03;;
17917;SDS011;9084;50.956;3.106;2023-07-31T00:24:09;11.98;;;5.25;;
17917;SDS011;9084;50.956;3.106;2023-07-31T00:26:35;11.50;;;4.88;;
17917;SDS011;9084;50.956;3.106;2023-07-31T00:29:00;8.50;;;4.85;;
17917;SDS011;9084;50.956;3.106;2023-07-31T00:31:29;10.20;;;5.13;;
17917;SDS011;9084;50.956;3.106;2023-07-31T00:33:57;10.63;;;5.25;;
17917;SDS011;9084;50.956;3.106;2023-07-31T00:36:22;8.20;;;4.50;;
17917;SDS011;9084;50.956;3.106;2023-07-31T00:38:48;11.07;;;4.28;;
17917;SDS011;9084;50.956;3.106;2023-07-31T00:41:14;13.13;;;5.18;;
17917;SDS011;9084;50.956;3.106;2023-07-31T00:43:40;9.55;;;4.55;;
17917;SDS011;9084;50.956;3.106;2023-07-31T00:46:05;10.38;;;5.00;;
17917;SDS011;9084;50.956;3.106;2023-07-31T00:48:32;6.80;;;4.20;;
17917;SDS011;9084;50.956;3.106;2023-07-31T00:50:58;9.75;;;4.25;;
17917;SDS011;9084;50.956;3.106;2023-07-31T00:53:26;9.60;;;4.63;;
17917;SDS011;9084;50.956;3.106;2023-07-31T00:55:52;8.55;;;4.38;;
17917;SDS011;9084;50.956;3.106;2023-07-31T00:58:18;13.05;;;4.53;;
17917;SDS011;9084;50.956;3.106;2023-07-31T01:00:46;11.73;;;5.18;;
17917;SDS011;9084;50.956;3.106;2023-07-31T01:03:12;8.15;;;4.18;;
17917;SDS011;9084;50.956;3.106;2023-07-31T01:08:18;8.20;;;4.25;;
17917;SDS011;9084;50.956;3.106;2023-07-31T01:11:04;7.07;;;4.25;;
17917;SDS011;9084;50.956;3.106;2023-07-31T01:13:41;10.15;;;4.25;;
17917;SDS011;9084;50.956;3.106;2023-07-31T01:16:11;7.97;;;4.10;;
17917;SDS011;9084;50.956;3.106;2023-07-31T01:18:42;8.30;;;3.83;;
17917;SDS011;9084;50.956;3.106;2023-07-31T01:26:39;8.80;;;3.85;;
17917;SDS011;9084;50.956;3.106;2023-07-31T01:29:13;7.65;;;4.45;;
17917;SDS011;9084;50.956;3.106;2023-07-31T01:31:50;7.40;;;4.07;;
17917;SDS011;9084;50.956;3.106;2023-07-31T01:34:21;10.45;;;4.40;;
17917;SDS011;9084;50.956;3.106;2023-07-31T01:36:48;7.80;;;3.80;;
17917;SDS011;9084;50.956;3.106;2023-07-31T01:39:14;7.13;;;4.25;;
17917;SDS011;9084;50.956;3.106;2023-07-31T01:41:42;8.20;;;3.30;;
17917;SDS011;9084;50.956;3.106;2023-07-31T01:44:10;6.20;;;3.80;;
17917;SDS011;9084;50.956;3.106;2023-07-31T01:46:35;12.40;;;3.85;;
17917;SDS011;9084;50.956;3.106;2023-07-31T01:49:01;7.32;;;3.92;;
17917;SDS011;9084;50.956;3.106;2023-07-31T01:51:26;5.95;;;3.22;;
17917;SDS011;9084;50.956;3.106;2023-07-31T01:53:58;6.18;;;3.63;;
17917;SDS011;9084;50.956;3.106;2023-07-31T01:56:25;8.05;;;4.07;;
17917;SDS011;9084;50.956;3.106;2023-07-31T01:58:53;8.85;;;3.88;;
17917;SDS011;9084;50.956;3.106;2023-07-31T02:01:19;7.05;;;3.55;;
17917;SDS011;9084;50.956;3.106;2023-07-31T02:03:44;9.38;;;3.50;;
17917;SDS011;9084;50.956;3.106;2023-07-31T02:06:10;8.68;;;4.22;;
17917;SDS011;9084;50.956;3.106;2023-07-31T02:08:38;8.10;;;3.90;;
17917;SDS011;9084;50.956;3.106;2023-07-31T02:11:04;7.90;;;4.05;;
17917;SDS011;9084;50.956;3.106;2023-07-31T02:13:29;8.43;;;3.85;;
17917;SDS011;9084;50.956;3.106;2023-07-31T02:15:55;10.00;;;3.63;;
17917;SDS011;9084;50.956;3.106;2023-07-31T02:18:21;8.73;;;3.53;;
17917;SDS011;9084;50.956;3.106;2023-07-31T02:20:50;7.40;;;3.30;;
17917;SDS011;9084;50.956;3.106;2023-07-31T02:23:17;8.50;;;3.60;;
17917;SDS011;9084;50.956;3.106;2023-07-31T02:25:43;8.10;;;4.25;;
17917;SDS011;9084;50.956;3.106;2023-07-31T02:28:09;8.07;;;3.42;;
17917;SDS011;9084;50.956;3.106;2023-07-31T02:30:35;7.85;;;3.30;;
17917;SDS011;9084;50.956;3.106;2023-07-31T02:33:06;7.47;;;3.55;;
17917;SDS011;9084;50.956;3.106;2023-07-31T02:35:34;8.20;;;3.90;;
17917;SDS011;9084;50.956;3.106;2023-07-31T02:37:59;5.32;;;3.30;;
17917;SDS011;9084;50.956;3.106;2023-07-31T02:40:25;5.72;;;3.35;;
17917;SDS011;9084;50.956;3.106;2023-07-31T02:42:53;7.80;;;3.85;;
17917;SDS011;9084;50.956;3.106;2023-07-31T02:45:18;5.28;;;3.25;;
17917;SDS011;9084;50.956;3.106;2023-07-31T02:47:44;7.97;;;3.20;;
17917;SDS011;9084;50.956;3.106;2023-07-31T02:50:12;6.88;;;3.85;;
17917;SDS011;9084;50.956;3.106;2023-07-31T02:52:37;8.65;;;3.97;;
17917;SDS011;9084;50.956;3.106;2023-07-31T02:55:03;7.22;;;3.60;;
17917;SDS011;9084;50.956;3.106;2023-07-31T02:57:32;7.50;;;3.88;;
17917;SDS011;9084;50.956;3.106;2023-07-31T02:59:58;6.38;;;2.88;;
17917;SDS011;9084;50.956;3.106;2023-07-31T03:02:23;8.95;;;4.15;;
17917;SDS011;9084;50.956;3.106;2023-07-31T03:04:51;7.22;;;3.92;;
17917;SDS011;9084;50.956;3.106;2023-07-31T03:07:19;10.85;;;4.22;;
17917;SDS011;9084;50.956;3.106;2023-07-31T03:09:47;10.63;;;4.13;;
17917;SDS011;9084;50.956;3.106;2023-07-31T03:12:13;8.27;;;4.03;;
17917;SDS011;9084;50.956;3.106;2023-07-31T03:14:38;10.18;;;3.97;;
17917;SDS011;9084;50.956;3.106;2023-07-31T03:17:07;5.38;;;3.35;;
17917;SDS011;9084;50.956;3.106;2023-07-31T03:19:33;6.97;;;3.55;;
17917;SDS011;9084;50.956;3.106;2023-07-31T03:21:59;8.60;;;4.25;;
17917;SDS011;9084;50.956;3.106;2023-07-31T03:24:25;11.70;;;4.45;;
17917;SDS011;9084;50.956;3.106;2023-07-31T03:26:51;8.50;;;4.28;;
17917;SDS011;9084;50.956;3.106;2023-07-31T03:29:21;5.07;;;3.90;;
17917;SDS011;9084;50.956;3.106;2023-07-31T03:31:49;6.47;;;3.58;;
17917;SDS011;9084;50.956;3.106;2023-07-31T03:34:19;7.53;;;3.78;;
17917;SDS011;9084;50.956;3.106;2023-07-31T03:36:45;6.53;;;3.60;;
17917;SDS011;9084;50.956;3.106;2023-07-31T03:39:11;6.40;;;3.63;;
17917;SDS011;9084;50.956;3.106;2023-07-31T03:41:36;9.82;;;4.32;;
17917;SDS011;9084;50.956;3.106;2023-07-31T03:44:02;8.93;;;3.83;;
17917;SDS011;9084;50.956;3.106;2023-07-31T03:46:30;9.48;;;3.75;;
17917;SDS011;9084;50.956;3.106;2023-07-31T03:48:58;6.72;;;3.22;;
17917;SDS011;9084;50.956;3.106;2023-07-31T03:51:24;7.75;;;3.55;;
17917;SDS011;9084;50.956;3.106;2023-07-31T03:53:52;4.10;;;3.15;;
17917;SDS011;9084;50.956;3.106;2023-07-31T03:56:20;5.03;;;3.22;;
17917;SDS011;9084;50.956;3.106;2023-07-31T03:58:45;5.47;;;2.95;;
17917;SDS011;9084;50.956;3.106;2023-07-31T04:01:11;5.60;;;2.92;;
17917;SDS011;9084;50.956;3.106;2023-07-31T04:03:37;5.28;;;2.70;;
17917;SDS011;9084;50.956;3.106;2023-07-31T04:06:05;4.78;;;3.38;;
17917;SDS011;9084;50.956;3.106;2023-07-31T04:08:32;6.47;;;3.83;;
17917;SDS011;9084;50.956;3.106;2023-07-31T04:10:57;4.60;;;2.47;;
17917;SDS011;9084;50.956;3.106;2023-07-31T04:13:23;4.65;;;3.08;;
17917;SDS011;9084;50.956;3.106;2023-07-31T04:15:54;7.63;;;3.25;;
17917;SDS011;9084;50.956;3.106;2023-07-31T04:18:20;5.28;;;2.75;;
17917;SDS011;9084;50.956;3.106;2023-07-31T04:20:46;4.80;;;2.72;;
17917;SDS011;9084;50.956;3.106;2023-07-31T04:23:11;5.30;;;2.78;;
17917;SDS011;9084;50.956;3.106;2023-07-31T04:25:37;5.43;;;2.72;;
17917;SDS011;9084;50.956;3.106;2023-07-31T04:28:03;4.45;;;2.90;;
17917;SDS011;9084;50.956;3.106;2023-07-31T04:30:31;4.85;;;2.53;;
17917;SDS011;9084;50.956;3.106;2023-07-31T04:32:57;7.32;;;2.92;;
17917;SDS011;9084;50.956;3.106;2023-07-31T04:35:22;6.07;;;3.10;;
17917;SDS011;9084;50.956;3.106;2023-07-31T04:37:48;5.53;;;3.00;;
17917;SDS011;9084;50.956;3.106;2023-07-31T04:40:14;3.70;;;2.53;;
17917;SDS011;9084;50.956;3.106;2023-07-31T04:42:40;5.03;;;2.20;;
17917;SDS011;9084;50.956;3.106;2023-07-31T04:45:07;4.75;;;2.22;;
17917;SDS011;9084;50.956;3.106;2023-07-31T04:47:36;4.93;;;2.80;;
17917;SDS011;9084;50.956;3.106;2023-07-31T04:50:04;5.05;;;2.80;;
17917;SDS011;9084;50.956;3.106;2023-07-31T04:52:30;6.25;;;2.63;;
17917;SDS011;9084;50.956;3.106;2023-07-31T04:54:58;2.53;;;1.88;;
17917;SDS011;9084;50.956;3.106;2023-07-31T04:57:28;3.58;;;2.65;;
17917;SDS011;9084;50.956;3.106;2023-07-31T04:59:54;6.90;;;2.60;;
17917;SDS011;9084;50.956;3.106;2023-07-31T05:02:20;5.55;;;2.47;;
17917;SDS011;9084;50.956;3.106;2023-07-31T05:04:51;2.80;;;1.92;;
17917;SDS011;9084;50.956;3.106;2023-07-31T05:07:19;4.63;;;2.33;;
17917;SDS011;9084;50.956;3.106;2023-07-31T05:09:45;4.03;;;2.25;;
17917;SDS011;9084;50.956;3.106;2023-07-31T05:12:16;4.20;;;2.10;;
17917;SDS011;9084;50.956;3.106;2023-07-31T05:14:41;4.60;;;2.75;;
17917;SDS011;9084;50.956;3.106;2023-07-31T05:17:07;3.67;;;2.67;;
17917;SDS011;9084;50.956;3.106;2023-07-31T05:19:32;5.80;;;3.20;;
17917;SDS011;9084;50.956;3.106;2023-07-31T05:22:03;2.92;;;2.63;;
17917;SDS011;9084;50.956;3.106;2023-07-31T05:24:31;4.63;;;2.25;;
17917;SDS011;9084;50.956;3.106;2023-07-31T05:26:57;3.72;;;2.47;;
17917;SDS011;9084;50.956;3.106;2023-07-31T05:29:22;4.05;;;3.03;;
17917;SDS011;9084;50.956;3.106;2023-07-31T05:31:50;5.13;;;3.20;;
17917;SDS011;9084;50.956;3.106;2023-07-31T05:34:18;4.18;;;2.70;;
17917;SDS011;9084;50.956;3.106;2023-07-31T05:36:44;4.72;;;2.55;;
17917;SDS011;9084;50.956;3.106;2023-07-31T05:39:11;4.53;;;2.35;;
17917;SDS011;9084;50.956;3.106;2023-07-31T05:41:37;4.95;;;3.00;;
17917;SDS011;9084;50.956;3.106;2023-07-31T05:44:03;3.42;;;2.65;;
17917;SDS011;9084;50.956;3.106;2023-07-31T05:46:31;4.00;;;2.75;;
17917;SDS011;9084;50.956;3.106;2023-07-31T05:48:57;4.90;;;2.80;;
17917;SDS011;9084;50.956;3.106;2023-07-31T05:51:24;4.45;;;2.78;;
17917;SDS011;9084;50.956;3.106;2023-07-31T05:53:50;4.32;;;2.58;;
17917;SDS011;9084;50.956;3.106;2023-07-31T05:56:20;4.68;;;2.72;;
17917;SDS011;9084;50.956;3.106;2023-07-31T05:58:46;2.72;;;2.17;;
17917;SDS011;9084;50.956;3.106;2023-07-31T06:01:17;5.47;;;2.78;;
17917;SDS011;9084;50.956;3.106;2023-07-31T06:03:43;4.53;;;2.67;;
17917;SDS011;9084;50.956;3.106;2023-07-31T06:06:11;4.75;;;2.80;;
17917;SDS011;9084;50.956;3.106;2023-07-31T06:08:38;2.97;;;2.17;;
17917;SDS011;9084;50.956;3.106;2023-07-31T06:11:05;4.78;;;2.42;;
17917;SDS011;9084;50.956;3.106;2023-07-31T06:13:36;3.83;;;2.25;;
17917;SDS011;9084;50.956;3.106;2023-07-31T06:16:07;4.10;;;2.70;;
17917;SDS011;9084;50.956;3.106;2023-07-31T06:18:33;6.13;;;2.45;;
17917;SDS011;9084;50.956;3.106;2023-07-31T06:20:58;3.63;;;2.60;;
17917;SDS011;9084;50.956;3.106;2023-07-31T06:23:24;3.67;;;2.25;;
17917;SDS011;9084;50.956;3.106;2023-07-31T06:25:52;4.93;;;2.15;;
17917;SDS011;9084;50.956;3.106;2023-07-31T06:28:18;5.75;;;2.63;;
17917;SDS011;9084;50.956;3.106;2023-07-31T06:30:43;4.03;;;2.20;;
17917;SDS011;9084;50.956;3.106;2023-07-31T06:33:09;3.78;;;2.53;;
17917;SDS011;9084;50.956;3.106;2023-07-31T06:35:35;4.95;;;2.65;;
17917;SDS011;9084;50.956;3.106;2023-07-31T06:38:03;4.88;;;2.28;;
17917;SDS011;9084;50.956;3.106;2023-07-31T06:40:31;2.13;;;1.92;;
17917;SDS011;9084;50.956;3.106;2023-07-31T06:42:59;3.30;;;2.25;;
17917;SDS011;9084;50.956;3.106;2023-07-31T06:45:27;2.30;;;2.00;;
17917;SDS011;9084;50.956;3.106;2023-07-31T06:47:54;3.70;;;2.25;;
17917;SDS011;9084;50.956;3.106;2023-07-31T06:50:28;2.97;;;1.58;;
17917;SDS011;9084;50.956;3.106;2023-07-31T06:52:57;4.18;;;2.20;;
17917;SDS011;9084;50.956;3.106;2023-07-31T06:55:25;2.70;;;1.80;;
17917;SDS011;9084;50.956;3.106;2023-07-31T06:57:52;2.35;;;2.15;;
17917;SDS011;9084;50.956;3.106;2023-07-31T07:00:19;3.17;;;2.25;;
17917;SDS011;9084;50.956;3.106;2023-07-31T07:02:46;2.97;;;1.50;;
17917;SDS011;9084;50.956;3.106;2023-07-31T07:05:15;3.78;;;1.77;;
17917;SDS011;9084;50.956;3.106;2023-07-31T07:07:44;3.38;;;2.10;;
17917;SDS011;9084;50.956;3.106;2023-07-31T07:10:09;2.88;;;2.08;;
17917;SDS011;9084;50.956;3.106;2023-07-31T07:12:35;2.50;;;2.05;;
17917;SDS011;9084;50.956;3.106;2023-07-31T07:15:01;2.05;;;1.85;;
17917;SDS011;9084;50.956;3.106;2023-07-31T07:17:28;1.95;;;1.70;;
17917;SDS011;9084;50.956;3.106;2023-07-31T07:19:58;3.45;;;2.22;;
17917;SDS011;9084;50.956;3.106;2023-07-31T07:22:27;2.40;;;1.70;;
17917;SDS011;9084;50.956;3.106;2023-07-31T07:24:57;3.33;;;1.85;;
17917;SDS011;9084;50.956;3.106;2023-07-31T07:27:25;3.05;;;1.65;;
17917;SDS011;9084;50.956;3.106;2023-07-31T07:29:53;2.67;;;2.08;;
17917;SDS011;9084;50.956;3.106;2023-07-31T07:32:21;2.67;;;1.30;;
17917;SDS011;9084;50.956;3.106;2023-07-31T07:34:49;2.58;;;1.20;;
17917;SDS011;9084;50.956;3.106;2023-07-31T07:37:15;1.48;;;1.38;;
17917;SDS011;9084;50.956;3.106;2023-07-31T07:39:41;2.25;;;1.13;;
17917;SDS011;9084;50.956;3.106;2023-07-31T07:42:07;1.35;;;1.25;;
17917;SDS011;9084;50.956;3.106;2023-07-31T07:44:32;1.48;;;1.10;;
17917;SDS011;9084;50.956;3.106;2023-07-31T07:46:58;1.75;;;1.48;;
17917;SDS011;9084;50.956;3.106;2023-07-31T07:49:24;1.17;;;1.08;;
17917;SDS011;9084;50.956;3.106;2023-07-31T07:51:49;1.15;;;1.00;;
17917;SDS011;9084;50.956;3.106;2023-07-31T07:54:17;1.50;;;1.27;;
17917;SDS011;9084;50.956;3.106;2023-07-31T07:56:44;1.40;;;1.30;;
17917;SDS011;9084;50.956;3.106;2023-07-31T07:59:09;2.03;;;1.40;;
17917;SDS011;9084;50.956;3.106;2023-07-31T08:01:37;1.15;;;1.02;;
17917;SDS011;9084;50.956;3.106;2023-07-31T08:04:03;1.65;;;1.35;;
17917;SDS011;9084;50.956;3.106;2023-07-31T08:06:31;1.88;;;1.45;;
17917;SDS011;9084;50.956;3.106;2023-07-31T08:08:57;1.73;;;1.30;;
17917;SDS011;9084;50.956;3.106;2023-07-31T08:11:22;2.80;;;1.40;;
17917;SDS011;9084;50.956;3.106;2023-07-31T08:13:49;1.98;;;1.35;;
17917;SDS011;9084;50.956;3.106;2023-07-31T08:16:14;2.58;;;1.77;;
17917;SDS011;9084;50.956;3.106;2023-07-31T08:18:40;1.20;;;1.10;;
17917;SDS011;9084;50.956;3.106;2023-07-31T08:21:07;1.30;;;1.20;;
17917;SDS011;9084;50.956;3.106;2023-07-31T08:23:33;2.63;;;1.40;;
17917;SDS011;9084;50.956;3.106;2023-07-31T08:25:59;2.15;;;1.60;;
17917;SDS011;9084;50.956;3.106;2023-07-31T08:28:27;2.08;;;1.55;;
17917;SDS011;9084;50.956;3.106;2023-07-31T08:30:52;1.75;;;1.45;;
17917;SDS011;9084;50.956;3.106;2023-07-31T08:33:18;1.60;;;1.45;;
17917;SDS011;9084;50.956;3.106;2023-07-31T08:35:48;2.00;;;1.80;;
17917;SDS011;9084;50.956;3.106;2023-07-31T08:38:14;2.25;;;1.88;;
17917;SDS011;9084;50.956;3.106;2023-07-31T08:40:40;2.22;;;1.45;;
17917;SDS011;9084;50.956;3.106;2023-07-31T08:43:08;1.80;;;1.52;;
17917;SDS011;9084;50.956;3.106;2023-07-31T08:45:34;1.83;;;1.73;;
17917;SDS011;9084;50.956;3.106;2023-07-31T08:48:00;1.38;;;1.27;;
17917;SDS011;9084;50.956;3.106;2023-07-31T08:50:26;1.88;;;1.50;;
17917;SDS011;9084;50.956;3.106;2023-07-31T08:52:52;2.10;;;1.90;;
17917;SDS011;9084;50.956;3.106;2023-07-31T08:55:18;2.25;;;1.88;;
17917;SDS011;9084;50.956;3.106;2023-07-31T08:57:50;2.50;;;2.03;;
17917;SDS011;9084;50.956;3.106;2023-07-31T09:00:18;3.33;;;2.17;;
17917;SDS011;9084;50.956;3.106;2023-07-31T09:02:52;2.05;;;1.80;;
17917;SDS011;9084;50.956;3.106;2023-07-31T09:05:24;3.78;;;2.10;;
17917;SDS011;9084;50.956;3.106;2023-07-31T09:07:52;2.10;;;1.88;;
17917;SDS011;9084;50.956;3.106;2023-07-31T09:10:20;2.50;;;2.15;;
17917;SDS011;9084;50.956;3.106;2023-07-31T09:12:48;2.40;;;1.88;;
17917;SDS011;9084;50.956;3.106;2023-07-31T09:15:15;2.83;;;2.53;;
17917;SDS011;9084;50.956;3.106;2023-07-31T09:17:42;2.97;;;2.67;;
17917;SDS011;9084;50.956;3.106;2023-07-31T09:20:12;4.60;;;2.63;;
17917;SDS011;9084;50.956;3.106;2023-07-31T09:22:42;2.30;;;2.10;;
17917;SDS011;9084;50.956;3.106;2023-07-31T09:30:13;3.55;;;2.75;;
17917;SDS011;9084;50.956;3.106;2023-07-31T09:32:42;3.08;;;2.35;;
17917;SDS011;9084;50.956;3.106;2023-07-31T09:35:19;2.63;;;2.40;;
17917;SDS011;9084;50.956;3.106;2023-07-31T09:37:51;3.35;;;2.83;;
17917;SDS011;9084;50.956;3.106;2023-07-31T09:42:53;3.67;;;2.67;;
17917;SDS011;9084;50.956;3.106;2023-07-31T09:45:29;2.75;;;2.17;;
17917;SDS011;9084;50.956;3.106;2023-07-31T09:48:02;2.92;;;2.30;;
17917;SDS011;9084;50.956;3.106;2023-07-31T09:50:30;3.28;;;2.55;;
17917;SDS011;9084;50.956;3.106;2023-07-31T09:52:56;2.88;;;2.58;;
17917;SDS011;9084;50.956;3.106;2023-07-31T09:55:22;2.63;;;2.42;;
17917;SDS011;9084;50.956;3.106;2023-07-31T09:57:51;4.10;;;2.72;;
17917;SDS011;9084;50.956;3.106;2023-07-31T10:00:20;3.17;;;2.88;;
17917;SDS011;9084;50.956;3.106;2023-07-31T10:02:47;3.10;;;2.80;;
17917;SDS011;9084;50.956;3.106;2023-07-31T10:05:15;3.28;;;2.60;;
17917;SDS011;9084;50.956;3.106;2023-07-31T10:07:42;3.95;;;2.80;;
17917;SDS011;9084;50.956;3.106;2023-07-31T10:10:16;4.68;;;2.60;;
17917;SDS011;9084;50.956;3.106;2023-07-31T10:12:44;4.80;;;3.08;;
17917;SDS011;9084;50.956;3.106;2023-07-31T10:15:11;4.07;;;3.22;;
17917;SDS011;9084;50.956;3.106;2023-07-31T10:17:37;2.65;;;2.35;;
17917;SDS011;9084;50.956;3.106;2023-07-31T10:20:03;4.78;;;2.90;;
17917;SDS011;9084;50.956;3.106;2023-07-31T10:22:31;5.55;;;2.75;;
17917;SDS011;9084;50.956;3.106;2023-07-31T10:24:58;4.10;;;2.67;;
17917;SDS011;9084;50.956;3.106;2023-07-31T10:27:24;4.13;;;2.47;;
17917;SDS011;9084;50.956;3.106;2023-07-31T10:29:50;3.38;;;2.42;;
17917;SDS011;9084;50.956;3.106;2023-07-31T10:32:21;2.55;;;2.30;;
17917;SDS011;9084;50.956;3.106;2023-07-31T10:34:49;2.97;;;2.08;;
17917;SDS011;9084;50.956;3.106;2023-07-31T10:37:22;3.15;;;2.50;;
17917;SDS011;9084;50.956;3.106;2023-07-31T10:40:02;2.78;;;2.20;;
17917;SDS011;9084;50.956;3.106;2023-07-31T10:45:04;3.05;;;2.50;;
17917;SDS011;9084;50.956;3.106;2023-07-31T10:47:58;3.40;;;2.40;;
17917;SDS011;9084;50.956;3.106;2023-07-31T10:50:26;2.45;;;2.08;;
17917;SDS011;9084;50.956;3.106;2023-07-31T10:52:54;2.97;;;2.17;;
17917;SDS011;9084;50.956;3.106;2023-07-31T10:57:49;3.72;;;2.33;;
17917;SDS011;9084;50.956;3.106;2023-07-31T11:00:21;2.70;;;2.10;;
17917;SDS011;9084;50.956;3.106;2023-07-31T11:03:00;3.20;;;2.05;;
17917;SDS011;9084;50.956;3.106;2023-07-31T11:08:41;3.03;;;1.80;;
17917;SDS011;9084;50.956;3.106;2023-07-31T11:11:13;2.70;;;1.80;;
17917;SDS011;9084;50.956;3.106;2023-07-31T11:13:50;2.97;;;1.83;;
17917;SDS011;9084;50.956;3.106;2023-07-31T11:16:18;2.42;;;1.80;;
17917;SDS011;9084;50.956;3.106;2023-07-31T11:18:46;2.90;;;2.03;;
17917;SDS011;9084;50.956;3.106;2023-07-31T11:21:14;2.75;;;1.98;;
17917;SDS011;9084;50.956;3.106;2023-07-31T11:23:46;2.83;;;1.90;;
17917;SDS011;9084;50.956;3.106;2023-07-31T11:26:15;2.90;;;2.22;;
17917;SDS011;9084;50.956;3.106;2023-07-31T11:28:46;3.15;;;1.98;;
17917;SDS011;9084;50.956;3.106;2023-07-31T11:31:13;2.30;;;2.05;;
17917;SDS011;9084;50.956;3.106;2023-07-31T11:33:39;5.30;;;2.45;;
17917;SDS011;9084;50.956;3.106;2023-07-31T11:36:10;3.25;;;2.45;;
17917;SDS011;9084;50.956;3.106;2023-07-31T11:38:42;3.70;;;2.30;;
17917;SDS011;9084;50.956;3.106;2023-07-31T11:41:13;4.30;;;2.15;;
17917;SDS011;9084;50.956;3.106;2023-07-31T11:43:40;3.00;;;1.95;;
17917;SDS011;9084;50.956;3.106;2023-07-31T11:46:09;3.75;;;2.17;;
17917;SDS011;9084;50.956;3.106;2023-07-31T11:48:37;2.80;;;2.08;;
17917;SDS011;9084;50.956;3.106;2023-07-31T11:51:06;2.40;;;2.20;;
17917;SDS011;9084;50.956;3.106;2023-07-31T11:56:18;1.67;;;1.13;;
17917;SDS011;9084;50.956;3.106;2023-07-31T11:58:49;3.10;;;1.80;;
17917;SDS011;9084;50.956;3.106;2023-07-31T12:01:21;3.05;;;1.48;;
17917;SDS011;9084;50.956;3.106;2023-07-31T12:03:50;3.78;;;1.95;;
17917;SDS011;9084;50.956;3.106;2023-07-31T12:06:17;2.25;;;1.67;;
17917;SDS011;9084;50.956;3.106;2023-07-31T12:08:42;3.03;;;1.50;;
17917;SDS011;9084;50.956;3.106;2023-07-31T12:11:10;1.50;;;1.40;;
17917;SDS011;9084;50.956;3.106;2023-07-31T12:13:36;1.90;;;1.60;;
17917;SDS011;9084;50.956;3.106;2023-07-31T12:16:02;2.17;;;1.90;;
17917;SDS011;9084;50.956;3.106;2023-07-31T12:18:35;2.63;;;1.80;;
17917;SDS011;9084;50.956;3.106;2023-07-31T12:21:04;2.70;;;1.85;;
17917;SDS011;9084;50.956;3.106;2023-07-31T12:23:31;3.05;;;2.10;;
17917;SDS011;9084;50.956;3.106;2023-07-31T12:28:47;2.47;;;2.28;;
17917;SDS011;9084;50.956;3.106;2023-07-31T12:31:15;3.40;;;1.92;;
17917;SDS011;9084;50.956;3.106;2023-07-31T12:33:43;3.05;;;2.30;;
17917;SDS011;9084;50.956;3.106;2023-07-31T12:36:10;4.10;;;2.30;;
17917;SDS011;9084;50.956;3.106;2023-07-31T12:38:39;2.55;;;2.35;;
17917;SDS011;9084;50.956;3.106;2023-07-31T12:41:06;3.65;;;2.60;;
17917;SDS011;9084;50.956;3.106;2023-07-31T12:43:34;2.63;;;2.42;;
17917;SDS011;9084;50.956;3.106;2023-07-31T12:46:01;2.72;;;2.30;;
17917;SDS011;9084;50.956;3.106;2023-07-31T12:48:29;2.80;;;2.05;;
17917;SDS011;9084;50.956;3.106;2023-07-31T12:50:55;2.55;;;2.35;;
17917;SDS011;9084;50.956;3.106;2023-07-31T12:53:20;2.78;;;2.58;;
17917;SDS011;9084;50.956;3.106;2023-07-31T12:55:48;2.95;;;2.65;;
17917;SDS011;9084;50.956;3.106;2023-07-31T12:58:15;2.78;;;2.53;;
17917;SDS011;9084;50.956;3.106;2023-07-31T13:00:41;2.63;;;2.42;;
17917;SDS011;9084;50.956;3.106;2023-07-31T13:03:09;2.88;;;2.53;;
17917;SDS011;9084;50.956;3.106;2023-07-31T13:05:35;2.55;;;2.20;;
17917;SDS011;9084;50.956;3.106;2023-07-31T13:08:01;2.50;;;2.10;;
17917;SDS011;9084;50.956;3.106;2023-07-31T13:10:29;2.78;;;2.10;;
17917;SDS011;9084;50.956;3.106;2023-07-31T13:12:57;2.40;;;1.98;;
17917;SDS011;9084;50.956;3.106;2023-07-31T13:15:25;2.97;;;1.90;;
17917;SDS011;9084;50.956;3.106;2023-07-31T13:17:51;1.58;;;1.48;;
17917;SDS011;9084;50.956;3.106;2023-07-31T13:20:18;1.52;;;1.40;;
17917;SDS011;9084;50.956;3.106;2023-07-31T13:22:47;1.48;;;1.20;;
17917;SDS011;9084;50.956;3.106;2023-07-31T13:25:15;2.38;;;1.30;;
17917;SDS011;9084;50.956;3.106;2023-07-31T13:27:42;1.50;;;1.40;;
17917;SDS011;9084;50.956;3.106;2023-07-31T13:30:10;1.67;;;1.40;;
17917;SDS011;9084;50.956;3.106;2023-07-31T13:32:36;2.10;;;1.48;;
17917;SDS011;9084;50.956;3.106;2023-07-31T13:35:04;1.55;;;1.45;;
17917;SDS011;9084;50.956;3.106;2023-07-31T13:37:31;3.50;;;1.27;;
17917;SDS011;9084;50.956;3.106;2023-07-31T13:39:59;2.17;;;1.60;;
17917;SDS011;9084;50.956;3.106;2023-07-31T13:42:29;1.20;;;1.10;;
17917;SDS011;9084;50.956;3.106;2023-07-31T13:44:56;1.63;;;1.30;;
17917;SDS011;9084;50.956;3.106;2023-07-31T13:47:24;1.30;;;1.20;;
17917;SDS011;9084;50.956;3.106;2023-07-31T13:49:49;1.10;;;1.00;;
17917;SDS011;9084;50.956;3.106;2023-07-31T13:52:15;1.80;;;1.10;;
17917;SDS011;9084;50.956;3.106;2023-07-31T13:54:41;1.38;;;1.05;;
17917;SDS011;9084;50.956;3.106;2023-07-31T13:57:08;0.68;;;0.68;;
17917;SDS011;9084;50.956;3.106;2023-07-31T13:59:33;0.60;;;0.60;;
17917;SDS011;9084;50.956;3.106;2023-07-31T14:01:59;1.08;;;0.80;;
17917;SDS011;9084;50.956;3.106;2023-07-31T14:04:27;3.13;;;0.77;;
17917;SDS011;9084;50.956;3.106;2023-07-31T14:06:55;0.63;;;0.60;;
17917;SDS011;9084;50.956;3.106;2023-07-31T14:09:22;1.08;;;0.60;;
17917;SDS011;9084;50.956;3.106;2023-07-31T14:11:50;0.60;;;0.50;;
17917;SDS011;9084;50.956;3.106;2023-07-31T14:14:15;1.30;;;0.55;;
17917;SDS011;9084;50.956;3.106;2023-07-31T14:16:43;0.60;;;0.40;;
17917;SDS011;9084;50.956;3.106;2023-07-31T14:19:10;0.68;;;0.50;;
17917;SDS011;9084;50.956;3.106;2023-07-31T14:21:36;0.65;;;0.35;;
17917;SDS011;9084;50.956;3.106;2023-07-31T14:24:02;2.25;;;0.40;;
17917;SDS011;9084;50.956;3.106;2023-07-31T14:26:30;0.40;;;0.40;;
17917;SDS011;9084;50.956;3.106;2023-07-31T14:28:58;0.98;;;0.40;;
17917;SDS011;9084;50.956;3.106;2023-07-31T14:31:26;0.40;;;0.40;;
17917;SDS011;9084;50.956;3.106;2023-07-31T14:33:54;0.30;;;0.30;;
17917;SDS011;9084;50.956;3.106;2023-07-31T14:36:20;0.88;;;0.40;;
17917;SDS011;9084;50.956;3.106;2023-07-31T14:38:45;0.43;;;0.30;;
17917;SDS011;9084;50.956;3.106;2023-07-31T14:41:13;0.30;;;0.30;;
17917;SDS011;9084;50.956;3.106;2023-07-31T14:43:39;0.55;;;0.40;;
17917;SDS011;9084;50.956;3.106;2023-07-31T14:46:09;0.65;;;0.40;;
17917;SDS011;9084;50.956;3.106;2023-07-31T14:48:34;0.88;;;0.50;;
17917;SDS011;9084;50.956;3.106;2023-07-31T14:51:00;0.40;;;0.40;;
17917;SDS011;9084;50.956;3.106;2023-07-31T14:53:28;0.77;;;0.40;;
17917;SDS011;9084;50.956;3.106;2023-07-31T14:55:56;0.93;;;0.50;;
17917;SDS011;9084;50.956;3.106;2023-07-31T14:58:24;0.38;;;0.35;;
17917;SDS011;9084;50.956;3.106;2023-07-31T15:00:49;0.32;;;0.32;;
17917;SDS011;9084;50.956;3.106;2023-07-31T15:03:18;1.02;;;0.43;;
17917;SDS011;9084;50.956;3.106;2023-07-31T15:05:45;1.05;;;0.38;;
17917;SDS011;9084;50.956;3.106;2023-07-31T15:08:11;0.65;;;0.40;;
17917;SDS011;9084;50.956;3.106;2023-07-31T15:10:37;0.50;;;0.45;;
17917;SDS011;9084;50.956;3.106;2023-07-31T15:13:07;0.75;;;0.40;;
17917;SDS011;9084;50.956;3.106;2023-07-31T15:15:33;0.50;;;0.47;;
17917;SDS011;9084;50.956;3.106;2023-07-31T15:17:58;0.50;;;0.32;;
17917;SDS011;9084;50.956;3.106;2023-07-31T15:20:24;0.32;;;0.20;;
17917;SDS011;9084;50.956;3.106;2023-07-31T15:22:50;0.50;;;0.50;;
17917;SDS011;9084;50.956;3.106;2023-07-31T15:25:16;0.40;;;0.40;;
17917;SDS011;9084;50.956;3.106;2023-07-31T15:27:41;1.00;;;0.30;;
17917;SDS011;9084;50.956;3.106;2023-07-31T15:30:07;0.20;;;0.20;;
17917;SDS011;9084;50.956;3.106;2023-07-31T15:32:33;0.30;;;0.30;;